sensor_id;sensor_type;location;lat;lon;timestamp;temperature;humidity
80230;DHT22;69540;42.136;24.742;2023-08-08T00:02:16;30.50;26.80
80230;DHT22;69540;42.136;24.742;2023-08-08T00:04:41;30.50;26.80
80230;DHT22;69540;42.136;24.742;2023-08-08T00:07:07;30.50;26.80
80230;DHT22;69540;42.136;24.742;2023-08-08T00:09:33;30.50;26.80
80230;DHT22;69540;42.136;24.742;2023-08-08T00:11:58;30.50;26.80
80230;DHT22;69540;42.136;24.742;2023-08-08T00:14:24;30.50;26.80
80230;DHT22;69540;42.136;24.742;2023-08-08T00:16:50;30.50;26.80
80230;DHT22;69540;42.136;24.742;2023-08-08T00:19:16;30.60;26.90
80230;DHT22;69540;42.136;24.742;2023-08-08T00:21:41;30.50;26.80
80230;DHT22;69540;42.136;24.742;2023-08-08T00:24:07;30.60;26.90
80230;DHT22;69540;42.136;24.742;2023-08-08T00:26:33;30.60;26.90
80230;DHT22;69540;42.136;24.742;2023-08-08T00:28:58;30.60;26.90
80230;DHT22;69540;42.136;24.742;2023-08-08T00:31:24;30.60;26.90
80230;DHT22;69540;42.136;24.742;2023-08-08T00:33:49;30.50;26.80
80230;DHT22;69540;42.136;24.742;2023-08-08T00:36:15;30.50;26.90
80230;DHT22;69540;42.136;24.742;2023-08-08T00:38:41;30.60;26.90
80230;DHT22;69540;42.136;24.742;2023-08-08T00:41:06;30.50;26.90
80230;DHT22;69540;42.136;24.742;2023-08-08T00:43:32;30.60;26.90
80230;DHT22;69540;42.136;24.742;2023-08-08T00:45:58;30.60;27.00
80230;DHT22;69540;42.136;24.742;2023-08-08T00:48:24;30.60;27.00
80230;DHT22;69540;42.136;24.742;2023-08-08T00:50:50;30.60;27.00
80230;DHT22;69540;42.136;24.742;2023-08-08T00:53:18;30.60;27.00
80230;DHT22;69540;42.136;24.742;2023-08-08T00:55:45;30.50;26.90
80230;DHT22;69540;42.136;24.742;2023-08-08T00:58:12;30.60;27.00
80230;DHT22;69540;42.136;24.742;2023-08-08T01:00:38;30.60;27.00
80230;DHT22;69540;42.136;24.742;2023-08-08T01:03:04;30.60;27.00
80230;DHT22;69540;42.136;24.742;2023-08-08T01:05:43;30.60;27.00
80230;DHT22;69540;42.136;24.742;2023-08-08T01:08:16;30.60;27.00
80230;DHT22;69540;42.136;24.742;2023-08-08T01:10:45;30.60;27.00
80230;DHT22;69540;42.136;24.742;2023-08-08T01:13:22;30.60;27.00
80230;DHT22;69540;42.136;24.742;2023-08-08T01:15:49;30.60;27.00
80230;DHT22;69540;42.136;24.742;2023-08-08T01:18:15;30.60;27.10
80230;DHT22;69540;42.136;24.742;2023-08-08T01:20:42;30.60;27.10
80230;DHT22;69540;42.136;24.742;2023-08-08T01:23:19;30.60;27.10
80230;DHT22;69540;42.136;24.742;2023-08-08T01:25:49;30.60;27.10
80230;DHT22;69540;42.136;24.742;2023-08-08T01:28:16;30.60;27.10
80230;DHT22;69540;42.136;24.742;2023-08-08T01:30:45;30.60;27.10
80230;DHT22;69540;42.136;24.742;2023-08-08T01:33:11;30.60;27.10
80230;DHT22;69540;42.136;24.742;2023-08-08T01:35:38;30.60;27.10
80230;DHT22;69540;42.136;24.742;2023-08-08T01:38:31;30.60;27.20
80230;DHT22;69540;42.136;24.742;2023-08-08T01:40:57;30.60;27.10
80230;DHT22;69540;42.136;24.742;2023-08-08T01:43:25;30.60;27.10
80230;DHT22;69540;42.136;24.742;2023-08-08T01:45:51;30.60;27.10
80230;DHT22;69540;42.136;24.742;2023-08-08T01:48:17;30.60;27.20
80230;DHT22;69540;42.136;24.742;2023-08-08T01:50:43;30.60;27.20
80230;DHT22;69540;42.136;24.742;2023-08-08T01:53:09;30.60;27.20
80230;DHT22;69540;42.136;24.742;2023-08-08T01:55:35;30.60;27.20
80230;DHT22;69540;42.136;24.742;2023-08-08T01:58:00;30.60;27.20
80230;DHT22;69540;42.136;24.742;2023-08-08T02:00:26;30.60;27.20
80230;DHT22;69540;42.136;24.742;2023-08-08T02:02:52;30.60;27.20
80230;DHT22;69540;42.136;24.742;2023-08-08T02:05:17;30.60;27.20
80230;DHT22;69540;42.136;24.742;2023-08-08T02:07:43;30.60;27.20
80230;DHT22;69540;42.136;24.742;2023-08-08T02:10:09;30.60;27.20
80230;DHT22;69540;42.136;24.742;2023-08-08T02:12:34;30.60;27.30
80230;DHT22;69540;42.136;24.742;2023-08-08T02:15:00;30.60;27.20
80230;DHT22;69540;42.136;24.742;2023-08-08T02:17:25;30.60;27.20
80230;DHT22;69540;42.136;24.742;2023-08-08T02:19:52;30.60;27.20
80230;DHT22;69540;42.136;24.742;2023-08-08T02:22:17;30.60;27.30
80230;DHT22;69540;42.136;24.742;2023-08-08T02:24:43;30.60;27.20
80230;DHT22;69540;42.136;24.742;2023-08-08T02:27:09;30.60;27.20
80230;DHT22;69540;42.136;24.742;2023-08-08T02:29:34;30.60;27.20
80230;DHT22;69540;42.136;24.742;2023-08-08T02:32:00;30.60;27.30
80230;DHT22;69540;42.136;24.742;2023-08-08T02:34:26;30.60;27.30
80230;DHT22;69540;42.136;24.742;2023-08-08T02:36:51;30.60;27.30
80230;DHT22;69540;42.136;24.742;2023-08-08T02:39:17;30.60;27.30
80230;DHT22;69540;42.136;24.742;2023-08-08T02:41:43;30.60;27.30
80230;DHT22;69540;42.136;24.742;2023-08-08T02:44:09;30.60;27.30
80230;DHT22;69540;42.136;24.742;2023-08-08T02:46:35;30.60;27.30
80230;DHT22;69540;42.136;24.742;2023-08-08T02:49:03;30.60;27.30
80230;DHT22;69540;42.136;24.742;2023-08-08T02:51:29;30.60;27.30
80230;DHT22;69540;42.136;24.742;2023-08-08T02:53:55;30.60;27.30
80230;DHT22;69540;42.136;24.742;2023-08-08T02:56:20;30.60;27.30
80230;DHT22;69540;42.136;24.742;2023-08-08T02:58:46;30.60;27.40
80230;DHT22;69540;42.136;24.742;2023-08-08T03:01:12;30.60;27.30
80230;DHT22;69540;42.136;24.742;2023-08-08T03:03:41;30.60;27.30
80230;DHT22;69540;42.136;24.742;2023-08-08T03:06:07;30.60;27.30
80230;DHT22;69540;42.136;24.742;2023-08-08T03:08:33;30.60;27.30
80230;DHT22;69540;42.136;24.742;2023-08-08T03:10:59;30.70;27.40
80230;DHT22;69540;42.136;24.742;2023-08-08T03:13:24;30.60;27.40
80230;DHT22;69540;42.136;24.742;2023-08-08T03:15:50;30.60;27.30
80230;DHT22;69540;42.136;24.742;2023-08-08T03:18:15;30.60;27.30
80230;DHT22;69540;42.136;24.742;2023-08-08T03:20:41;30.60;27.30
80230;DHT22;69540;42.136;24.742;2023-08-08T03:23:07;30.60;27.30
80230;DHT22;69540;42.136;24.742;2023-08-08T03:25:32;30.70;27.40
80230;DHT22;69540;42.136;24.742;2023-08-08T03:27:58;30.60;27.40
80230;DHT22;69540;42.136;24.742;2023-08-08T03:30:24;30.70;28.00
80230;DHT22;69540;42.136;24.742;2023-08-08T03:32:49;30.60;29.00
80230;DHT22;69540;42.136;24.742;2023-08-08T03:35:15;30.60;29.40
80230;DHT22;69540;42.136;24.742;2023-08-08T03:37:41;30.40;29.80
80230;DHT22;69540;42.136;24.742;2023-08-08T03:40:07;30.30;30.00
80230;DHT22;69540;42.136;24.742;2023-08-08T03:42:33;30.10;30.50
80230;DHT22;69540;42.136;24.742;2023-08-08T03:44:59;30.00;30.70
80230;DHT22;69540;42.136;24.742;2023-08-08T03:47:25;30.00;31.00
80230;DHT22;69540;42.136;24.742;2023-08-08T03:49:51;29.90;31.30
80230;DHT22;69540;42.136;24.742;2023-08-08T03:52:20;29.90;31.30
80230;DHT22;69540;42.136;24.742;2023-08-08T03:54:46;29.90;31.30
80230;DHT22;69540;42.136;24.742;2023-08-08T03:57:12;29.90;31.10
80230;DHT22;69540;42.136;24.742;2023-08-08T03:59:37;29.90;31.30
80230;DHT22;69540;42.136;24.742;2023-08-08T04:02:03;29.80;31.40
80230;DHT22;69540;42.136;24.742;2023-08-08T04:04:29;29.80;31.30
80230;DHT22;69540;42.136;24.742;2023-08-08T04:06:55;29.70;31.00
80230;DHT22;69540;42.136;24.742;2023-08-08T04:09:20;29.80;31.10
80230;DHT22;69540;42.136;24.742;2023-08-08T04:11:46;29.70;31.80
80230;DHT22;69540;42.136;24.742;2023-08-08T04:14:12;29.60;32.00
80230;DHT22;69540;42.136;24.742;2023-08-08T04:16:38;29.50;31.90
80230;DHT22;69540;42.136;24.742;2023-08-08T04:19:04;29.40;32.30
80230;DHT22;69540;42.136;24.742;2023-08-08T04:21:30;29.30;32.50
80230;DHT22;69540;42.136;24.742;2023-08-08T04:23:58;29.20;32.80
80230;DHT22;69540;42.136;24.742;2023-08-08T04:26:24;29.20;33.20
80230;DHT22;69540;42.136;24.742;2023-08-08T04:28:49;29.20;34.20
80230;DHT22;69540;42.136;24.742;2023-08-08T04:31:15;29.10;35.40
80230;DHT22;69540;42.136;24.742;2023-08-08T04:33:41;28.80;36.10
80230;DHT22;69540;42.136;24.742;2023-08-08T04:36:06;28.70;36.70
80230;DHT22;69540;42.136;24.742;2023-08-08T04:38:32;28.60;36.70
80230;DHT22;69540;42.136;24.742;2023-08-08T04:40:58;28.60;36.60
80230;DHT22;69540;42.136;24.742;2023-08-08T04:43:23;28.60;36.70
80230;DHT22;69540;42.136;24.742;2023-08-08T04:45:49;28.60;36.40
80230;DHT22;69540;42.136;24.742;2023-08-08T04:48:14;28.60;37.00
80230;DHT22;69540;42.136;24.742;2023-08-08T04:50:40;28.60;37.20
80230;DHT22;69540;42.136;24.742;2023-08-08T04:53:06;28.50;37.40
80230;DHT22;69540;42.136;24.742;2023-08-08T04:55:32;28.30;37.90
80230;DHT22;69540;42.136;24.742;2023-08-08T04:57:57;28.20;38.20
80230;DHT22;69540;42.136;24.742;2023-08-08T05:00:23;28.10;38.10
80230;DHT22;69540;42.136;24.742;2023-08-08T05:02:48;28.10;38.30
80230;DHT22;69540;42.136;24.742;2023-08-08T05:05:14;28.00;38.80
80230;DHT22;69540;42.136;24.742;2023-08-08T05:07:40;27.90;38.50
80230;DHT22;69540;42.136;24.742;2023-08-08T05:10:06;27.90;38.70
80230;DHT22;69540;42.136;24.742;2023-08-08T05:12:32;27.90;38.60
80230;DHT22;69540;42.136;24.742;2023-08-08T05:14:57;27.90;38.30
80230;DHT22;69540;42.136;24.742;2023-08-08T05:17:23;28.00;38.10
80230;DHT22;69540;42.136;24.742;2023-08-08T05:19:49;28.00;37.70
80230;DHT22;69540;42.136;24.742;2023-08-08T05:22:14;28.00;37.90
80230;DHT22;69540;42.136;24.742;2023-08-08T05:24:40;28.00;37.60
80230;DHT22;69540;42.136;24.742;2023-08-08T05:27:06;28.00;37.50
80230;DHT22;69540;42.136;24.742;2023-08-08T05:29:31;28.00;37.10
80230;DHT22;69540;42.136;24.742;2023-08-08T05:31:57;28.00;37.40
80230;DHT22;69540;42.136;24.742;2023-08-08T05:34:26;28.00;37.90
80230;DHT22;69540;42.136;24.742;2023-08-08T05:36:51;27.90;37.80
80230;DHT22;69540;42.136;24.742;2023-08-08T05:39:17;27.90;37.80
80230;DHT22;69540;42.136;24.742;2023-08-08T05:41:42;27.90;37.80
80230;DHT22;69540;42.136;24.742;2023-08-08T05:44:08;27.90;38.30
80230;DHT22;69540;42.136;24.742;2023-08-08T05:46:34;27.70;37.90
80230;DHT22;69540;42.136;24.742;2023-08-08T05:48:59;27.70;38.50
80230;DHT22;69540;42.136;24.742;2023-08-08T05:51:26;27.60;38.30
80230;DHT22;69540;42.136;24.742;2023-08-08T05:53:52;27.60;38.10
80230;DHT22;69540;42.136;24.742;2023-08-08T05:56:18;27.50;38.20
80230;DHT22;69540;42.136;24.742;2023-08-08T05:58:43;27.50;38.20
80230;DHT22;69540;42.136;24.742;2023-08-08T06:01:09;27.60;38.10
80230;DHT22;69540;42.136;24.742;2023-08-08T06:03:37;27.50;38.10
80230;DHT22;69540;42.136;24.742;2023-08-08T06:06:03;27.40;37.80
80230;DHT22;69540;42.136;24.742;2023-08-08T06:08:29;27.50;37.90
80230;DHT22;69540;42.136;24.742;2023-08-08T06:10:55;27.50;37.80
80230;DHT22;69540;42.136;24.742;2023-08-08T06:13:20;27.60;37.80
80230;DHT22;69540;42.136;24.742;2023-08-08T06:15:46;27.70;37.80
80230;DHT22;69540;42.136;24.742;2023-08-08T06:18:12;27.70;37.60
80230;DHT22;69540;42.136;24.742;2023-08-08T06:20:37;27.80;37.50
80230;DHT22;69540;42.136;24.742;2023-08-08T06:23:03;27.90;37.40
80230;DHT22;69540;42.136;24.742;2023-08-08T06:25:29;27.90;37.30
80230;DHT22;69540;42.136;24.742;2023-08-08T06:27:54;28.00;37.20
80230;DHT22;69540;42.136;24.742;2023-08-08T06:30:20;28.10;37.30
80230;DHT22;69540;42.136;24.742;2023-08-08T06:32:46;28.10;37.10
80230;DHT22;69540;42.136;24.742;2023-08-08T06:35:11;28.20;37.10
80230;DHT22;69540;42.136;24.742;2023-08-08T06:37:37;28.20;36.60
80230;DHT22;69540;42.136;24.742;2023-08-08T06:40:03;28.30;36.10
80230;DHT22;69540;42.136;24.742;2023-08-08T06:42:29;28.40;36.20
80230;DHT22;69540;42.136;24.742;2023-08-08T06:44:55;28.40;36.10
80230;DHT22;69540;42.136;24.742;2023-08-08T06:47:21;28.50;36.20
80230;DHT22;69540;42.136;24.742;2023-08-08T06:49:47;28.50;37.40
80230;DHT22;69540;42.136;24.742;2023-08-08T06:52:13;28.60;37.80
80230;DHT22;69540;42.136;24.742;2023-08-08T06:54:38;28.60;37.10
80230;DHT22;69540;42.136;24.742;2023-08-08T06:57:04;28.60;37.30
80230;DHT22;69540;42.136;24.742;2023-08-08T06:59:30;28.70;36.80
80230;DHT22;69540;42.136;24.742;2023-08-08T07:01:55;28.70;36.50
80230;DHT22;69540;42.136;24.742;2023-08-08T07:04:22;28.70;35.60
80230;DHT22;69540;42.136;24.742;2023-08-08T07:06:49;28.80;35.50
80230;DHT22;69540;42.136;24.742;2023-08-08T07:09:15;28.80;35.10
80230;DHT22;69540;42.136;24.742;2023-08-08T07:11:40;28.80;35.30
80230;DHT22;69540;42.136;24.742;2023-08-08T07:14:06;28.90;35.10
80230;DHT22;69540;42.136;24.742;2023-08-08T07:16:32;28.90;35.10
80230;DHT22;69540;42.136;24.742;2023-08-08T07:18:57;28.90;35.00
80230;DHT22;69540;42.136;24.742;2023-08-08T07:21:23;28.90;34.60
80230;DHT22;69540;42.136;24.742;2023-08-08T07:23:49;29.00;34.90
80230;DHT22;69540;42.136;24.742;2023-08-08T07:26:14;29.00;34.80
80230;DHT22;69540;42.136;24.742;2023-08-08T07:28:40;29.10;34.80
80230;DHT22;69540;42.136;24.742;2023-08-08T07:31:06;29.10;34.90
80230;DHT22;69540;42.136;24.742;2023-08-08T07:33:31;29.10;34.90
80230;DHT22;69540;42.136;24.742;2023-08-08T07:35:57;29.10;34.60
80230;DHT22;69540;42.136;24.742;2023-08-08T07:38:23;29.20;34.60
80230;DHT22;69540;42.136;24.742;2023-08-08T07:40:48;29.20;34.60
80230;DHT22;69540;42.136;24.742;2023-08-08T07:43:14;29.20;35.40
80230;DHT22;69540;42.136;24.742;2023-08-08T07:45:40;29.20;33.00
80230;DHT22;69540;42.136;24.742;2023-08-08T07:48:06;29.20;32.30
80230;DHT22;69540;42.136;24.742;2023-08-08T07:50:32;29.20;32.30
80230;DHT22;69540;42.136;24.742;2023-08-08T07:52:57;29.20;32.20
80230;DHT22;69540;42.136;24.742;2023-08-08T07:55:23;29.20;31.80
80230;DHT22;69540;42.136;24.742;2023-08-08T07:57:49;29.20;32.10
80230;DHT22;69540;42.136;24.742;2023-08-08T08:00:15;29.20;32.30
80230;DHT22;69540;42.136;24.742;2023-08-08T08:02:44;29.20;32.40
80230;DHT22;69540;42.136;24.742;2023-08-08T08:05:10;29.20;32.30
80230;DHT22;69540;42.136;24.742;2023-08-08T08:07:37;29.20;32.50
80230;DHT22;69540;42.136;24.742;2023-08-08T08:10:05;29.20;32.20
80230;DHT22;69540;42.136;24.742;2023-08-08T08:12:32;29.30;32.20
80230;DHT22;69540;42.136;24.742;2023-08-08T08:14:58;29.20;31.60
80230;DHT22;69540;42.136;24.742;2023-08-08T08:17:24;29.30;31.40
80230;DHT22;69540;42.136;24.742;2023-08-08T08:19:51;29.30;31.70
80230;DHT22;69540;42.136;24.742;2023-08-08T08:22:17;29.30;31.20
80230;DHT22;69540;42.136;24.742;2023-08-08T08:24:42;29.30;31.10
80230;DHT22;69540;42.136;24.742;2023-08-08T08:27:08;29.20;31.10
80230;DHT22;69540;42.136;24.742;2023-08-08T08:29:34;29.20;31.10
80230;DHT22;69540;42.136;24.742;2023-08-08T08:32:00;29.20;31.30
80230;DHT22;69540;42.136;24.742;2023-08-08T08:34:25;29.20;30.90
80230;DHT22;69540;42.136;24.742;2023-08-08T08:36:51;29.20;30.70
80230;DHT22;69540;42.136;24.742;2023-08-08T08:39:17;29.20;30.90
80230;DHT22;69540;42.136;24.742;2023-08-08T08:41:44;29.20;30.70
80230;DHT22;69540;42.136;24.742;2023-08-08T08:44:14;29.30;30.80
80230;DHT22;69540;42.136;24.742;2023-08-08T08:46:41;29.20;30.60
80230;DHT22;69540;42.136;24.742;2023-08-08T08:49:07;29.20;30.50
80230;DHT22;69540;42.136;24.742;2023-08-08T08:51:35;29.20;30.30
80230;DHT22;69540;42.136;24.742;2023-08-08T08:54:01;29.20;30.30
80230;DHT22;69540;42.136;24.742;2023-08-08T08:56:27;29.20;30.20
80230;DHT22;69540;42.136;24.742;2023-08-08T08:58:53;29.20;30.50
80230;DHT22;69540;42.136;24.742;2023-08-08T09:01:19;29.20;30.20
80230;DHT22;69540;42.136;24.742;2023-08-08T09:03:47;29.20;30.00
80230;DHT22;69540;42.136;24.742;2023-08-08T09:06:14;29.20;30.00
80230;DHT22;69540;42.136;24.742;2023-08-08T09:08:41;29.20;30.00
80230;DHT22;69540;42.136;24.742;2023-08-08T09:11:07;29.20;30.00
80230;DHT22;69540;42.136;24.742;2023-08-08T09:13:37;29.20;30.00
80230;DHT22;69540;42.136;24.742;2023-08-08T09:16:07;29.20;30.10
80230;DHT22;69540;42.136;24.742;2023-08-08T09:18:37;29.20;30.00
80230;DHT22;69540;42.136;24.742;2023-08-08T09:21:04;29.20;29.90
80230;DHT22;69540;42.136;24.742;2023-08-08T09:23:30;29.20;30.00
80230;DHT22;69540;42.136;24.742;2023-08-08T09:25:56;29.20;30.00
80230;DHT22;69540;42.136;24.742;2023-08-08T09:28:22;29.20;30.00
80230;DHT22;69540;42.136;24.742;2023-08-08T09:30:48;29.20;29.80
80230;DHT22;69540;42.136;24.742;2023-08-08T09:33:13;29.20;29.70
80230;DHT22;69540;42.136;24.742;2023-08-08T09:35:39;29.20;29.70
80230;DHT22;69540;42.136;24.742;2023-08-08T09:38:05;29.20;29.80
80230;DHT22;69540;42.136;24.742;2023-08-08T09:40:31;29.30;29.90
80230;DHT22;69540;42.136;24.742;2023-08-08T09:42:57;29.30;29.90
80230;DHT22;69540;42.136;24.742;2023-08-08T09:45:24;29.30;29.90
80230;DHT22;69540;42.136;24.742;2023-08-08T09:47:50;29.30;30.00
80230;DHT22;69540;42.136;24.742;2023-08-08T09:50:18;29.30;30.00
80230;DHT22;69540;42.136;24.742;2023-08-08T09:52:44;29.30;30.00
80230;DHT22;69540;42.136;24.742;2023-08-08T09:55:11;29.30;30.00
80230;DHT22;69540;42.136;24.742;2023-08-08T09:57:39;29.30;29.80
80230;DHT22;69540;42.136;24.742;2023-08-08T10:00:06;29.30;29.60
80230;DHT22;69540;42.136;24.742;2023-08-08T10:02:37;29.30;29.40
80230;DHT22;69540;42.136;24.742;2023-08-08T10:05:06;29.30;29.10
80230;DHT22;69540;42.136;24.742;2023-08-08T10:07:32;29.40;28.90
80230;DHT22;69540;42.136;24.742;2023-08-08T10:09:58;29.30;28.80
80230;DHT22;69540;42.136;24.742;2023-08-08T10:12:26;29.30;28.60
80230;DHT22;69540;42.136;24.742;2023-08-08T10:14:52;29.40;28.60
80230;DHT22;69540;42.136;24.742;2023-08-08T10:17:18;29.40;28.50
80230;DHT22;69540;42.136;24.742;2023-08-08T10:19:54;29.40;28.50
80230;DHT22;69540;42.136;24.742;2023-08-08T10:22:22;29.40;28.40
80230;DHT22;69540;42.136;24.742;2023-08-08T10:24:51;29.30;27.90
80230;DHT22;69540;42.136;24.742;2023-08-08T10:27:33;29.30;27.70
80230;DHT22;69540;42.136;24.742;2023-08-08T10:30:07;29.40;27.60
80230;DHT22;69540;42.136;24.742;2023-08-08T10:32:41;29.30;27.40
80230;DHT22;69540;42.136;24.742;2023-08-08T10:35:07;29.30;27.30
80230;DHT22;69540;42.136;24.742;2023-08-08T10:37:35;29.30;27.20
80230;DHT22;69540;42.136;24.742;2023-08-08T10:40:01;29.30;27.60
80230;DHT22;69540;42.136;24.742;2023-08-08T10:42:42;29.40;27.10
80230;DHT22;69540;42.136;24.742;2023-08-08T10:45:13;29.40;27.90
80230;DHT22;69540;42.136;24.742;2023-08-08T10:47:40;29.40;27.00
80230;DHT22;69540;42.136;24.742;2023-08-08T10:50:11;29.40;27.00
80230;DHT22;69540;42.136;24.742;2023-08-08T10:55:30;29.40;26.90
80230;DHT22;69540;42.136;24.742;2023-08-08T10:58:08;29.40;26.90
80230;DHT22;69540;42.136;24.742;2023-08-08T11:00:36;29.30;26.80
80230;DHT22;69540;42.136;24.742;2023-08-08T11:03:03;29.40;26.80
80230;DHT22;69540;42.136;24.742;2023-08-08T11:05:31;29.40;26.70
80230;DHT22;69540;42.136;24.742;2023-08-08T11:07:58;29.40;26.60
80230;DHT22;69540;42.136;24.742;2023-08-08T11:10:24;29.40;26.50
80230;DHT22;69540;42.136;24.742;2023-08-08T11:13:06;29.40;26.50
80230;DHT22;69540;42.136;24.742;2023-08-08T11:15:33;29.40;26.40
80230;DHT22;69540;42.136;24.742;2023-08-08T11:18:00;29.40;26.40
80230;DHT22;69540;42.136;24.742;2023-08-08T11:20:33;29.40;26.30
80230;DHT22;69540;42.136;24.742;2023-08-08T11:23:00;29.40;26.40
80230;DHT22;69540;42.136;24.742;2023-08-08T11:25:27;29.40;26.30
80230;DHT22;69540;42.136;24.742;2023-08-08T11:27:54;29.50;26.30
80230;DHT22;69540;42.136;24.742;2023-08-08T11:30:22;29.40;26.20
80230;DHT22;69540;42.136;24.742;2023-08-08T11:32:49;29.50;26.10
80230;DHT22;69540;42.136;24.742;2023-08-08T11:35:22;29.50;25.80
80230;DHT22;69540;42.136;24.742;2023-08-08T11:37:49;29.50;25.70
80230;DHT22;69540;42.136;24.742;2023-08-08T11:40:15;29.50;25.60
80230;DHT22;69540;42.136;24.742;2023-08-08T11:42:42;29.50;25.70
80230;DHT22;69540;42.136;24.742;2023-08-08T11:45:09;29.50;25.70
80230;DHT22;69540;42.136;24.742;2023-08-08T11:47:35;29.50;25.70
80230;DHT22;69540;42.136;24.742;2023-08-08T11:50:05;29.50;25.70
80230;DHT22;69540;42.136;24.742;2023-08-08T11:52:32;29.50;25.70
80230;DHT22;69540;42.136;24.742;2023-08-08T11:55:01;29.60;25.70
80230;DHT22;69540;42.136;24.742;2023-08-08T11:57:27;29.50;25.60
80230;DHT22;69540;42.136;24.742;2023-08-08T11:59:56;29.50;25.60
80230;DHT22;69540;42.136;24.742;2023-08-08T12:02:23;29.60;25.60
80230;DHT22;69540;42.136;24.742;2023-08-08T12:04:49;29.60;25.70
80230;DHT22;69540;42.136;24.742;2023-08-08T12:07:17;29.60;25.90
80230;DHT22;69540;42.136;24.742;2023-08-08T12:09:42;29.60;25.90
80230;DHT22;69540;42.136;24.742;2023-08-08T12:12:08;29.60;25.90
80230;DHT22;69540;42.136;24.742;2023-08-08T12:14:42;29.60;25.90
80230;DHT22;69540;42.136;24.742;2023-08-08T12:17:09;29.70;26.00
80230;DHT22;69540;42.136;24.742;2023-08-08T12:19:34;29.70;25.90
80230;DHT22;69540;42.136;24.742;2023-08-08T12:22:00;29.70;25.80
80230;DHT22;69540;42.136;24.742;2023-08-08T12:24:26;29.70;25.70
80230;DHT22;69540;42.136;24.742;2023-08-08T12:26:51;29.70;25.60
80230;DHT22;69540;42.136;24.742;2023-08-08T12:29:17;29.70;25.70
80230;DHT22;69540;42.136;24.742;2023-08-08T12:31:43;29.70;25.90
80230;DHT22;69540;42.136;24.742;2023-08-08T12:34:08;29.70;26.20
80230;DHT22;69540;42.136;24.742;2023-08-08T12:36:35;29.80;26.30
80230;DHT22;69540;42.136;24.742;2023-08-08T12:39:02;29.70;26.40
80230;DHT22;69540;42.136;24.742;2023-08-08T12:41:28;29.80;26.50
80230;DHT22;69540;42.136;24.742;2023-08-08T12:43:55;29.70;26.30
80230;DHT22;69540;42.136;24.742;2023-08-08T12:46:20;29.80;26.30
80230;DHT22;69540;42.136;24.742;2023-08-08T12:48:47;29.80;26.50
80230;DHT22;69540;42.136;24.742;2023-08-08T12:51:12;29.80;26.60
80230;DHT22;69540;42.136;24.742;2023-08-08T12:53:40;29.80;26.60
80230;DHT22;69540;42.136;24.742;2023-08-08T12:56:05;29.70;26.60
80230;DHT22;69540;42.136;24.742;2023-08-08T12:58:31;29.70;26.60
80230;DHT22;69540;42.136;24.742;2023-08-08T13:00:56;29.60;26.60
80230;DHT22;69540;42.136;24.742;2023-08-08T13:03:22;29.60;26.70
80230;DHT22;69540;42.136;24.742;2023-08-08T13:05:48;29.50;26.70
80230;DHT22;69540;42.136;24.742;2023-08-08T13:08:13;29.50;26.70
80230;DHT22;69540;42.136;24.742;2023-08-08T13:10:39;29.40;26.70
80230;DHT22;69540;42.136;24.742;2023-08-08T13:13:05;29.40;26.60
80230;DHT22;69540;42.136;24.742;2023-08-08T13:15:31;29.30;26.60
80230;DHT22;69540;42.136;24.742;2023-08-08T13:17:57;29.30;26.50
80230;DHT22;69540;42.136;24.742;2023-08-08T13:20:24;29.20;26.50
80230;DHT22;69540;42.136;24.742;2023-08-08T13:22:50;29.20;26.50
80230;DHT22;69540;42.136;24.742;2023-08-08T13:25:16;29.20;26.60
80230;DHT22;69540;42.136;24.742;2023-08-08T13:27:44;29.10;26.50
80230;DHT22;69540;42.136;24.742;2023-08-08T13:30:10;29.10;26.60
80230;DHT22;69540;42.136;24.742;2023-08-08T13:32:36;29.10;26.70
80230;DHT22;69540;42.136;24.742;2023-08-08T13:35:02;29.10;26.70
80230;DHT22;69540;42.136;24.742;2023-08-08T13:37:27;29.00;26.60
80230;DHT22;69540;42.136;24.742;2023-08-08T13:39:53;29.00;26.60
80230;DHT22;69540;42.136;24.742;2023-08-08T13:42:19;29.00;26.50
80230;DHT22;69540;42.136;24.742;2023-08-08T13:44:44;29.00;26.50
80230;DHT22;69540;42.136;24.742;2023-08-08T13:47:10;29.00;26.40
80230;DHT22;69540;42.136;24.742;2023-08-08T13:49:36;28.90;26.40
80230;DHT22;69540;42.136;24.742;2023-08-08T13:52:01;28.90;26.40
80230;DHT22;69540;42.136;24.742;2023-08-08T13:54:27;28.90;26.40
80230;DHT22;69540;42.136;24.742;2023-08-08T13:56:53;28.90;26.30
80230;DHT22;69540;42.136;24.742;2023-08-08T13:59:19;28.90;26.30
80230;DHT22;69540;42.136;24.742;2023-08-08T14:01:44;28.90;26.40
80230;DHT22;69540;42.136;24.742;2023-08-08T14:04:10;28.90;26.40
80230;DHT22;69540;42.136;24.742;2023-08-08T14:06:36;28.90;26.20
80230;DHT22;69540;42.136;24.742;2023-08-08T14:09:01;28.90;26.20
80230;DHT22;69540;42.136;24.742;2023-08-08T14:11:29;28.90;26.30
80230;DHT22;69540;42.136;24.742;2023-08-08T14:13:54;28.90;26.30
80230;DHT22;69540;42.136;24.742;2023-08-08T14:16:20;28.90;26.40
80230;DHT22;69540;42.136;24.742;2023-08-08T14:18:45;28.80;26.30
80230;DHT22;69540;42.136;24.742;2023-08-08T14:21:11;28.80;26.20
80230;DHT22;69540;42.136;24.742;2023-08-08T14:23:37;28.80;26.20
80230;DHT22;69540;42.136;24.742;2023-08-08T14:26:02;28.80;26.10
80230;DHT22;69540;42.136;24.742;2023-08-08T14:28:28;28.80;26.20
80230;DHT22;69540;42.136;24.742;2023-08-08T14:30:54;28.80;26.10
80230;DHT22;69540;42.136;24.742;2023-08-08T14:33:19;28.80;26.20
80230;DHT22;69540;42.136;24.742;2023-08-08T14:35:45;28.80;26.20
80230;DHT22;69540;42.136;24.742;2023-08-08T14:38:11;28.80;26.20
80230;DHT22;69540;42.136;24.742;2023-08-08T14:40:36;28.80;26.20
80230;DHT22;69540;42.136;24.742;2023-08-08T14:43:02;28.80;26.20
80230;DHT22;69540;42.136;24.742;2023-08-08T14:45:28;28.80;26.10
80230;DHT22;69540;42.136;24.742;2023-08-08T14:47:55;28.80;26.20
80230;DHT22;69540;42.136;24.742;2023-08-08T14:50:21;28.80;26.10
80230;DHT22;69540;42.136;24.742;2023-08-08T14:52:46;28.80;26.10
80230;DHT22;69540;42.136;24.742;2023-08-08T14:55:12;28.80;26.10
80230;DHT22;69540;42.136;24.742;2023-08-08T14:57:38;28.80;26.10
80230;DHT22;69540;42.136;24.742;2023-08-08T15:00:04;28.80;26.10
80230;DHT22;69540;42.136;24.742;2023-08-08T15:02:31;28.80;26.10
80230;DHT22;69540;42.136;24.742;2023-08-08T15:04:57;28.70;26.10
80230;DHT22;69540;42.136;24.742;2023-08-08T15:07:23;28.70;26.20
80230;DHT22;69540;42.136;24.742;2023-08-08T15:09:48;28.70;26.20
80230;DHT22;69540;42.136;24.742;2023-08-08T15:12:16;28.80;26.30
80230;DHT22;69540;42.136;24.742;2023-08-08T15:14:41;28.70;26.20